Time;durP1;ratioP1;P1;durP2;ratioP2;P2;SDS_P1;SDS_P2;PMS_P1;PMS_P2;Temp;Humidity;BMP_temperature;BMP_pressure;BME280_temperature;BME280_humidity;BME280_pressure;Samples;Min_cycle;Max_cycle;Signal;HPM_P1;HPM_P2
2024/03/28 00:02:01;;;;;;;3.50;1.30;;;;;;;;;;4894738;29;20262;-92
2024/03/28 00:04:28;;;;;;;1.77;1.40;;;;;;;;;;4883741;29;20239;-92
2024/03/28 00:06:54;;;;;;;2.10;1.90;;;;;;;;;;4897670;29;20245;-92
2024/03/28 00:09:21;;;;;;;5.43;2.17;;;;;;;;;;4897220;29;20218;-92
2024/03/28 00:11:47;;;;;;;2.13;2.03;;;;;;;;;;4898196;29;20210;-92
2024/03/28 00:14:14;;;;;;;5.73;1.83;;;;;;;;;;4881529;29;20249;-92
2024/03/28 00:16:43;;;;;;;5.17;3.13;;;;;;;;;;4880172;29;20239;-92
2024/03/28 00:19:09;;;;;;;4.33;2.00;;;;;;;;;;4896701;29;20260;-92
2024/03/28 00:21:38;;;;;;;1.60;1.47;;;;;;;;;;4881838;29;20234;-90
2024/03/28 00:24:05;;;;;;;2.00;1.90;;;;;;;;;;4915626;29;20788;-92
2024/03/28 00:26:31;;;;;;;5.93;2.80;;;;;;;;;;4898274;29;20251;-91
2024/03/28 00:28:57;;;;;;;1.97;1.87;;;;;;;;;;4908463;29;20229;-90
2024/03/28 00:31:24;;;;;;;2.10;1.93;;;;;;;;;;4912683;29;20298;-90
2024/03/28 00:33:50;;;;;;;3.03;1.70;;;;;;;;;;4886224;29;20249;-92
2024/03/28 00:36:16;;;;;;;1.63;1.53;;;;;;;;;;4904809;29;20217;-92
2024/03/28 00:38:42;;;;;;;2.13;2.03;;;;;;;;;;4898274;29;20317;-92
2024/03/28 00:41:08;;;;;;;4.60;2.57;;;;;;;;;;4898846;29;20234;-92
2024/03/28 00:43:34;;;;;;;3.17;2.87;;;;;;;;;;4903411;29;20234;-92
2024/03/28 00:46:01;;;;;;;2.77;1.73;;;;;;;;;;4886620;29;20235;-92
2024/03/28 00:48:27;;;;;;;2.17;1.27;;;;;;;;;;4902855;29;20211;-92
2024/03/28 00:51:02;;;;;;;3.47;2.07;;;;;;;;;;4902271;29;20576;-91
2024/03/28 00:53:28;;;;;;;2.17;1.97;;;;;;;;;;4901085;29;20233;-92
2024/03/28 00:55:55;;;;;;;3.00;2.17;;;;;;;;;;4896974;29;20234;-93
2024/03/28 00:58:21;;;;;;;4.90;2.43;;;;;;;;;;4895190;29;20271;-92
2024/03/28 01:00:48;;;;;;;5.10;2.97;;;;;;;;;;4895578;29;20245;-93
2024/03/28 01:03:15;;;;;;;2.27;2.07;;;;;;;;;;4895578;29;20230;-92
2024/03/28 01:05:41;;;;;;;1.77;1.67;;;;;;;;;;4909849;29;20219;-92
2024/03/28 01:08:07;;;;;;;1.60;1.50;;;;;;;;;;4875052;29;20235;-91
2024/03/28 01:10:37;;;;;;;1.73;1.57;;;;;;;;;;4889967;29;20234;-92
2024/03/28 01:13:04;;;;;;;2.77;2.63;;;;;;;;;;4892358;29;20242;-92
2024/03/28 01:15:30;;;;;;;2.20;2.03;;;;;;;;;;4878037;29;20336;-91
2024/03/28 01:17:56;;;;;;;1.90;1.77;;;;;;;;;;4892591;29;20616;-90
2024/03/28 01:20:22;;;;;;;1.87;1.73;;;;;;;;;;4876988;29;20257;-92
2024/03/28 01:22:48;;;;;;;4.57;3.20;;;;;;;;;;4890402;29;20241;-90
2024/03/28 01:25:15;;;;;;;10.77;2.70;;;;;;;;;;4868301;29;20238;-92
2024/03/28 01:27:41;;;;;;;1.63;1.53;;;;;;;;;;4876935;29;20720;-92
2024/03/28 01:30:10;;;;;;;3.33;3.00;;;;;;;;;;4893945;29;20247;-92
2024/03/28 01:32:36;;;;;;;2.93;2.53;;;;;;;;;;4908435;29;20234;-92
2024/03/28 01:35:03;;;;;;;2.57;2.37;;;;;;;;;;4876001;29;20266;-93
2024/03/28 01:37:29;;;;;;;4.00;2.67;;;;;;;;;;4883706;29;20248;-91
2024/03/28 01:39:55;;;;;;;4.07;2.40;;;;;;;;;;4903516;29;20293;-93
2024/03/28 01:42:21;;;;;;;2.27;1.73;;;;;;;;;;4877740;29;20234;-93
2024/03/28 01:44:47;;;;;;;2.47;2.33;;;;;;;;;;4908629;29;20798;-91
2024/03/28 01:47:14;;;;;;;2.67;2.47;;;;;;;;;;4892885;29;20274;-93
2024/03/28 01:49:42;;;;;;;1.77;1.67;;;;;;;;;;4892965;29;20322;-92
2024/03/28 01:52:10;;;;;;;3.50;2.80;;;;;;;;;;4892605;29;20234;-92
2024/03/28 01:54:37;;;;;;;2.83;2.67;;;;;;;;;;4907519;29;20238;-93
2024/03/28 01:57:04;;;;;;;3.13;1.73;;;;;;;;;;4892945;29;20256;-91
2024/03/28 01:59:40;;;;;;;3.10;1.80;;;;;;;;;;4876687;29;20238;-93
2024/03/28 02:02:07;;;;;;;3.37;3.07;;;;;;;;;;4878700;29;20239;-91
2024/03/28 02:04:34;;;;;;;2.97;2.77;;;;;;;;;;4872215;29;20235;-92
2024/03/28 02:07:01;;;;;;;4.73;2.77;;;;;;;;;;4887419;29;20243;-93
2024/03/28 02:09:27;;;;;;;3.53;2.50;;;;;;;;;;4873452;29;20302;-93
2024/03/28 02:11:58;;;;;;;4.80;2.63;;;;;;;;;;4857164;29;20869;-92
2024/03/28 02:14:25;;;;;;;2.37;2.03;;;;;;;;;;4856738;29;20239;-92
2024/03/28 02:16:51;;;;;;;2.33;2.23;;;;;;;;;;4854958;29;20298;-93
2024/03/28 02:19:17;;;;;;;1.97;1.87;;;;;;;;;;4887622;29;20339;-93
2024/03/28 02:21:46;;;;;;;5.93;4.67;;;;;;;;;;4888325;29;20343;-92
2024/03/28 02:24:13;;;;;;;2.67;2.47;;;;;;;;;;4874158;29;20222;-92
2024/03/28 02:26:39;;;;;;;3.80;2.60;;;;;;;;;;4857153;29;20242;-94
2024/03/28 02:29:05;;;;;;;3.60;2.90;;;;;;;;;;4864912;29;21020;-93
2024/03/28 02:31:34;;;;;;;4.17;3.23;;;;;;;;;;4872590;29;20231;-94
2024/03/28 02:34:00;;;;;;;3.33;2.17;;;;;;;;;;4891661;29;21212;-93
2024/03/28 02:36:26;;;;;;;3.10;2.40;;;;;;;;;;4876047;29;20218;-93
2024/03/28 02:38:53;;;;;;;2.83;2.57;;;;;;;;;;4893491;29;20223;-92
2024/03/28 02:41:25;;;;;;;2.97;2.63;;;;;;;;;;4876469;29;20644;-92
2024/03/28 02:44:03;;;;;;;5.10;3.67;;;;;;;;;;4901935;29;20233;-93
2024/03/28 02:46:29;;;;;;;3.23;2.90;;;;;;;;;;4907466;29;20230;-92
2024/03/28 02:48:55;;;;;;;6.13;3.47;;;;;;;;;;4876164;29;20241;-92
2024/03/28 02:51:21;;;;;;;4.53;3.80;;;;;;;;;;4892020;29;20671;-91
2024/03/28 02:53:50;;;;;;;3.70;3.47;;;;;;;;;;4877559;29;20215;-92
2024/03/28 02:56:16;;;;;;;2.23;2.00;;;;;;;;;;4907256;29;20234;-92
2024/03/28 02:58:42;;;;;;;2.47;2.27;;;;;;;;;;4864813;29;20322;-91
2024/03/28 03:01:10;;;;;;;3.47;1.87;;;;;;;;;;4856148;29;20262;-91
2024/03/28 03:03:38;;;;;;;4.13;3.73;;;;;;;;;;4871693;29;20314;-91
2024/03/28 03:06:04;;;;;;;2.40;2.20;;;;;;;;;;4856837;29;20211;-93
2024/03/28 03:08:30;;;;;;;2.83;2.63;;;;;;;;;;4854756;29;20234;-93
2024/03/28 03:10:56;;;;;;;3.03;2.27;;;;;;;;;;4847854;29;20263;-90
2024/03/28 03:13:23;;;;;;;2.77;2.57;;;;;;;;;;4848621;29;20239;-93
2024/03/28 03:15:57;;;;;;;2.80;2.57;;;;;;;;;;4844466;29;21182;-92
2024/03/28 03:18:26;;;;;;;3.00;2.80;;;;;;;;;;4875157;29;20789;-93
2024/03/28 03:21:00;;;;;;;2.30;2.20;;;;;;;;;;4845582;29;20219;-94
2024/03/28 03:23:27;;;;;;;5.77;1.73;;;;;;;;;;4853704;29;20235;-93
2024/03/28 03:25:59;;;;;;;1.27;1.27;;;;;;;;;;4851871;29;20306;-90
2024/03/28 03:36:41;;;;;;;3.93;2.13;;;;;;;;;;4909899;29;20258;-93
2024/03/28 03:39:08;;;;;;;2.37;2.27;;;;;;;;;;4879952;29;20210;-92
2024/03/28 03:41:34;;;;;;;3.63;3.33;;;;;;;;;;4894296;29;20237;-93
2024/03/28 03:44:02;;;;;;;7.83;5.63;;;;;;;;;;4894140;29;20235;-93
2024/03/28 03:46:28;;;;;;;7.83;3.57;;;;;;;;;;4894521;29;20242;-92
2024/03/28 03:48:55;;;;;;;3.57;3.27;;;;;;;;;;4894937;29;20254;-93
2024/03/28 03:51:21;;;;;;;5.90;3.37;;;;;;;;;;4894775;29;20215;-92
2024/03/28 03:53:47;;;;;;;2.90;2.43;;;;;;;;;;4880587;29;20211;-93
2024/03/28 03:56:13;;;;;;;2.70;2.50;;;;;;;;;;4878935;29;20243;-92
2024/03/28 03:58:39;;;;;;;4.20;2.77;;;;;;;;;;4894115;29;20234;-92
2024/03/28 04:01:05;;;;;;;5.60;4.23;;;;;;;;;;4879562;29;20298;-92
2024/03/28 04:03:31;;;;;;;6.30;2.67;;;;;;;;;;4883151;29;20778;-94
2024/03/28 04:06:01;;;;;;;4.23;3.87;;;;;;;;;;4895880;29;20210;-94
2024/03/28 04:08:28;;;;;;;3.20;2.90;;;;;;;;;;4878332;29;20254;-93
2024/03/28 04:10:54;;;;;;;3.43;3.23;;;;;;;;;;4894159;29;20222;-93
2024/03/28 04:13:20;;;;;;;4.03;2.83;;;;;;;;;;4894560;29;20345;-93
2024/03/28 04:15:47;;;;;;;2.47;2.17;;;;;;;;;;4889022;29;20314;-94
2024/03/28 04:18:16;;;;;;;2.60;2.17;;;;;;;;;;4859391;29;20795;-93
2024/03/28 04:20:42;;;;;;;4.27;3.10;;;;;;;;;;4858388;29;20511;-94
2024/03/28 04:23:09;;;;;;;3.17;2.97;;;;;;;;;;4842740;29;20243;-92
2024/03/28 04:25:35;;;;;;;3.17;2.97;;;;;;;;;;4849612;29;20712;-94
2024/03/28 04:28:01;;;;;;;1.67;1.67;;;;;;;;;;4858762;29;20242;-94
2024/03/28 04:30:31;;;;;;;6.17;4.70;;;;;;;;;;4858296;29;20654;-93
2024/03/28 04:32:57;;;;;;;5.07;3.27;;;;;;;;;;4873857;29;20211;-93
2024/03/28 04:35:24;;;;;;;6.00;3.90;;;;;;;;;;4843083;29;20272;-93
2024/03/28 04:37:51;;;;;;;7.20;5.10;;;;;;;;;;4872431;29;20326;-92
2024/03/28 04:40:17;;;;;;;5.03;4.20;;;;;;;;;;4856637;29;20246;-93
2024/03/28 04:42:50;;;;;;;4.13;2.43;;;;;;;;;;4855852;29;20239;-93
2024/03/28 04:45:17;;;;;;;6.60;3.33;;;;;;;;;;4850348;29;20655;-93
2024/03/28 04:47:44;;;;;;;3.43;3.13;;;;;;;;;;4887121;29;20241;-93
2024/03/28 04:50:10;;;;;;;4.03;3.73;;;;;;;;;;4891968;29;20610;-93
2024/03/28 04:52:36;;;;;;;5.60;4.77;;;;;;;;;;4892322;29;20233;-94
2024/03/28 04:55:05;;;;;;;5.00;3.33;;;;;;;;;;4891250;29;20325;-92
2024/03/28 04:57:31;;;;;;;5.73;4.63;;;;;;;;;;4892398;29;20209;-92
2024/03/28 04:59:57;;;;;;;4.07;2.50;;;;;;;;;;4879070;29;20210;-94
2024/03/28 05:02:26;;;;;;;3.40;3.10;;;;;;;;;;4892962;29;20269;-94
2024/03/28 05:04:52;;;;;;;3.40;2.67;;;;;;;;;;4893275;29;20238;-94
2024/03/28 05:07:19;;;;;;;4.20;3.93;;;;;;;;;;4876930;29;20234;-96
2024/03/28 05:09:48;;;;;;;2.97;2.77;;;;;;;;;;4908976;29;20235;-96
2024/03/28 05:12:14;;;;;;;4.03;3.30;;;;;;;;;;4894460;29;20222;-96
2024/03/28 05:14:41;;;;;;;5.20;3.13;;;;;;;;;;4891963;29;20337;-95
2024/03/28 05:17:07;;;;;;;3.47;3.27;;;;;;;;;;4885329;29;20238;-94
2024/03/28 05:19:36;;;;;;;4.43;4.03;;;;;;;;;;4889533;29;20272;-94
2024/03/28 05:22:03;;;;;;;3.23;2.93;;;;;;;;;;4896421;29;20245;-90
2024/03/28 05:24:29;;;;;;;2.70;2.50;;;;;;;;;;4892943;29;20210;-92
2024/03/28 05:26:56;;;;;;;4.13;2.73;;;;;;;;;;4893025;29;20218;-92
2024/03/28 05:29:22;;;;;;;8.53;4.47;;;;;;;;;;4892863;29;20238;-93
2024/03/28 05:31:48;;;;;;;4.53;3.23;;;;;;;;;;4893335;29;20252;-94
2024/03/28 05:34:14;;;;;;;3.73;3.43;;;;;;;;;;4892334;29;20238;-92
2024/03/28 05:36:41;;;;;;;3.67;3.37;;;;;;;;;;4892118;29;20254;-93
2024/03/28 05:39:08;;;;;;;3.40;2.57;;;;;;;;;;4889893;29;20225;-94
2024/03/28 05:41:34;;;;;;;2.53;2.33;;;;;;;;;;4889952;29;20725;-94
2024/03/28 05:44:00;;;;;;;3.97;2.60;;;;;;;;;;4875588;29;20230;-92
2024/03/28 05:46:27;;;;;;;3.97;3.00;;;;;;;;;;4891160;29;20916;-94
2024/03/28 05:48:53;;;;;;;4.10;3.20;;;;;;;;;;4870851;29;20230;-94
2024/03/28 05:51:20;;;;;;;7.43;2.87;;;;;;;;;;4891131;29;20215;-91
2024/03/28 05:53:48;;;;;;;3.37;3.17;;;;;;;;;;4892469;29;20206;-94
2024/03/28 05:56:15;;;;;;;5.60;3.57;;;;;;;;;;4875611;29;20266;-94
2024/03/28 05:58:41;;;;;;;5.03;3.97;;;;;;;;;;4891158;29;20682;-94
2024/03/28 06:01:07;;;;;;;4.13;3.83;;;;;;;;;;4876471;29;20262;-93
2024/03/28 06:03:34;;;;;;;3.80;3.17;;;;;;;;;;4892120;29;20230;-95
2024/03/28 06:06:00;;;;;;;2.67;2.33;;;;;;;;;;4892804;29;20207;-92
2024/03/28 06:08:26;;;;;;;5.57;3.77;;;;;;;;;;4891143;29;20246;-93
2024/03/28 06:10:52;;;;;;;3.37;3.17;;;;;;;;;;4892127;29;20337;-95
2024/03/28 06:13:18;;;;;;;6.47;3.87;;;;;;;;;;4890570;29;20234;-93
2024/03/28 06:15:44;;;;;;;3.37;3.17;;;;;;;;;;4892434;29;20234;-95
2024/03/28 06:18:12;;;;;;;3.53;3.27;;;;;;;;;;4892676;29;20214;-95
2024/03/28 06:20:39;;;;;;;3.37;3.17;;;;;;;;;;4891084;29;20888;-92
2024/03/28 06:23:13;;;;;;;3.67;3.40;;;;;;;;;;4875659;29;20237;-94
2024/03/28 06:25:39;;;;;;;2.20;2.03;;;;;;;;;;4890686;29;20253;-94
2024/03/28 06:28:08;;;;;;;3.70;3.50;;;;;;;;;;4891550;29;20604;-92
2024/03/28 06:30:35;;;;;;;3.67;3.37;;;;;;;;;;4892387;29;20218;-92
2024/03/28 06:33:02;;;;;;;3.97;2.97;;;;;;;;;;4892197;29;20265;-92
2024/03/28 06:35:28;;;;;;;3.57;3.23;;;;;;;;;;4891034;29;20685;-94
2024/03/28 06:37:54;;;;;;;4.47;4.03;;;;;;;;;;4876478;29;20249;-94
2024/03/28 06:40:20;;;;;;;2.73;2.50;;;;;;;;;;4891957;29;20290;-93
2024/03/28 06:42:46;;;;;;;3.30;3.10;;;;;;;;;;4873877;29;20242;-90
2024/03/28 06:45:12;;;;;;;2.77;2.53;;;;;;;;;;4892120;29;20218;-90
2024/03/28 06:47:38;;;;;;;5.27;3.73;;;;;;;;;;4889972;29;20239;-88
2024/03/28 06:50:05;;;;;;;3.63;3.33;;;;;;;;;;4875867;29;20269;-92
2024/03/28 06:52:31;;;;;;;7.07;2.37;;;;;;;;;;4876300;29;20238;-90
2024/03/28 06:54:57;;;;;;;7.57;3.53;;;;;;;;;;4891408;29;20238;-90
2024/03/28 06:57:23;;;;;;;5.63;4.17;;;;;;;;;;4890191;29;20722;-92
2024/03/28 06:59:52;;;;;;;5.70;3.33;;;;;;;;;;4891405;29;20416;-90
2024/03/28 07:02:18;;;;;;;3.33;3.13;;;;;;;;;;4891884;29;20593;-93
2024/03/28 07:04:44;;;;;;;3.87;3.23;;;;;;;;;;4890283;29;20234;-91
2024/03/28 07:07:10;;;;;;;5.20;4.67;;;;;;;;;;4874370;29;20778;-92
2024/03/28 07:09:36;;;;;;;3.20;2.57;;;;;;;;;;4891004;29;20246;-94
2024/03/28 07:12:02;;;;;;;4.93;2.40;;;;;;;;;;4891872;29;20217;-92
2024/03/28 07:14:30;;;;;;;3.70;3.43;;;;;;;;;;4891361;29;20234;-93
2024/03/28 07:16:56;;;;;;;3.00;2.60;;;;;;;;;;4870735;29;20233;-93
2024/03/28 07:19:28;;;;;;;4.10;3.03;;;;;;;;;;4905465;29;20242;-90
2024/03/28 07:21:55;;;;;;;4.40;2.80;;;;;;;;;;4891392;29;20330;-91
2024/03/28 07:24:27;;;;;;;2.20;2.10;;;;;;;;;;4878226;29;20217;-93
2024/03/28 07:26:53;;;;;;;3.13;2.47;;;;;;;;;;4898785;29;20214;-91
2024/03/28 07:29:19;;;;;;;2.80;1.83;;;;;;;;;;4894605;29;20222;-94
2024/03/28 07:31:45;;;;;;;4.77;3.93;;;;;;;;;;4874504;29;20635;-87
2024/03/28 07:34:12;;;;;;;3.50;3.00;;;;;;;;;;4897471;29;20243;-91
2024/03/28 07:36:38;;;;;;;2.50;2.30;;;;;;;;;;4874030;29;20745;-91
2024/03/28 07:39:04;;;;;;;2.90;2.70;;;;;;;;;;4875554;29;20246;-91
2024/03/28 07:41:33;;;;;;;2.03;1.93;;;;;;;;;;4890638;29;20242;-91
2024/03/28 07:43:59;;;;;;;3.83;3.53;;;;;;;;;;4904903;29;20238;-90
2024/03/28 07:46:25;;;;;;;3.50;3.30;;;;;;;;;;4875465;29;20381;-90
2024/03/28 07:48:52;;;;;;;5.03;4.50;;;;;;;;;;4906471;29;20718;-89
2024/03/28 07:51:18;;;;;;;3.30;2.83;;;;;;;;;;4891228;29;20291;-91
2024/03/28 07:53:44;;;;;;;2.63;2.43;;;;;;;;;;4889688;29;20239;-92
2024/03/28 07:56:13;;;;;;;5.17;2.77;;;;;;;;;;4905713;29;20265;-92
2024/03/28 07:58:39;;;;;;;1.63;1.57;;;;;;;;;;4887821;29;20241;-90
2024/03/28 08:01:09;;;;;;;2.10;2.00;;;;;;;;;;4877566;29;20329;-90
2024/03/28 08:03:37;;;;;;;3.23;1.87;;;;;;;;;;4893474;29;20237;-92
2024/03/28 08:06:03;;;;;;;5.33;4.87;;;;;;;;;;4908990;29;20215;-89
2024/03/28 08:08:29;;;;;;;2.57;2.13;;;;;;;;;;4893542;29;20254;-91
2024/03/28 08:10:55;;;;;;;3.00;2.47;;;;;;;;;;4893139;29;20780;-91
2024/03/28 08:13:21;;;;;;;2.73;1.80;;;;;;;;;;4876919;29;20238;-90
2024/03/28 08:15:48;;;;;;;3.23;3.03;;;;;;;;;;4876831;29;20253;-90
2024/03/28 08:18:14;;;;;;;3.00;2.73;;;;;;;;;;4894812;29;20369;-91
2024/03/28 08:20:40;;;;;;;3.40;2.37;;;;;;;;;;4877268;29;20329;-92
2024/03/28 08:23:06;;;;;;;2.10;2.00;;;;;;;;;;4909532;29;20691;-92
2024/03/28 08:25:32;;;;;;;5.47;2.00;;;;;;;;;;4891937;29;20234;-92
2024/03/28 08:28:02;;;;;;;3.77;3.57;;;;;;;;;;4875817;29;20238;-91
2024/03/28 08:30:28;;;;;;;6.37;3.73;;;;;;;;;;4877418;29;20214;-91
2024/03/28 08:32:55;;;;;;;5.43;3.90;;;;;;;;;;4909098;29;20215;-91
2024/03/28 08:35:22;;;;;;;3.90;3.17;;;;;;;;;;4892590;29;20729;-90
2024/03/28 08:37:49;;;;;;;5.47;1.70;;;;;;;;;;4893361;29;20446;-92
2024/03/28 08:40:15;;;;;;;7.07;2.73;;;;;;;;;;4872626;29;20269;-89
2024/03/28 08:42:43;;;;;;;3.30;2.83;;;;;;;;;;4857177;29;20270;-89
2024/03/28 08:45:13;;;;;;;4.63;3.47;;;;;;;;;;4888972;29;20215;-91
2024/03/28 08:47:40;;;;;;;3.30;2.53;;;;;;;;;;4888367;29;20242;-90
2024/03/28 08:50:06;;;;;;;5.17;3.23;;;;;;;;;;4888189;29;20237;-91
2024/03/28 08:52:33;;;;;;;3.17;2.97;;;;;;;;;;4887861;29;20715;-93
2024/03/28 08:55:00;;;;;;;2.83;2.57;;;;;;;;;;4887869;29;20279;-92
2024/03/28 08:57:29;;;;;;;2.57;2.47;;;;;;;;;;4856654;29;20215;-92
2024/03/28 08:59:57;;;;;;;6.17;4.20;;;;;;;;;;4873621;29;20274;-92
2024/03/28 09:02:24;;;;;;;4.97;2.93;;;;;;;;;;4855425;29;20276;-91
2024/03/28 09:04:51;;;;;;;4.40;2.83;;;;;;;;;;4888189;29;20322;-92
2024/03/28 09:07:20;;;;;;;4.77;3.90;;;;;;;;;;4887744;29;20249;-89
2024/03/28 09:09:47;;;;;;;3.13;2.67;;;;;;;;;;4872343;29;20337;-92
2024/03/28 09:12:13;;;;;;;4.13;2.67;;;;;;;;;;4875649;29;20219;-90
2024/03/28 09:14:42;;;;;;;4.63;2.83;;;;;;;;;;4907622;29;20300;-94
2024/03/28 09:17:08;;;;;;;3.47;3.20;;;;;;;;;;4877930;29;20253;-92
2024/03/28 09:19:35;;;;;;;4.50;3.40;;;;;;;;;;4876771;29;20234;-91
2024/03/28 09:22:01;;;;;;;5.03;2.77;;;;;;;;;;4889985;29;20238;-91
2024/03/28 09:24:27;;;;;;;7.53;4.10;;;;;;;;;;4875418;29;20249;-91
2024/03/28 09:26:54;;;;;;;5.40;3.50;;;;;;;;;;4892020;29;20223;-91
2024/03/28 09:29:21;;;;;;;5.63;4.37;;;;;;;;;;4889662;29;20242;-92
2024/03/28 09:31:53;;;;;;;8.20;5.07;;;;;;;;;;4889959;29;20734;-92
2024/03/28 09:34:22;;;;;;;5.70;5.20;;;;;;;;;;4890824;29;20301;-94
2024/03/28 09:36:52;;;;;;;3.00;2.57;;;;;;;;;;4886646;29;20685;-91
2024/03/28 09:39:19;;;;;;;3.67;3.37;;;;;;;;;;4909490;29;20682;-95
2024/03/28 09:41:46;;;;;;;3.47;2.27;;;;;;;;;;4912866;29;20231;-91
2024/03/28 09:44:23;;;;;;;3.00;2.07;;;;;;;;;;4899532;29;20238;-93
2024/03/28 09:46:49;;;;;;;3.57;3.27;;;;;;;;;;4885293;29;20241;-93
2024/03/28 09:49:23;;;;;;;3.87;2.80;;;;;;;;;;4904294;29;20710;-94
2024/03/28 09:51:59;;;;;;;3.83;2.90;;;;;;;;;;4884403;29;20288;-94
2024/03/28 09:54:26;;;;;;;3.10;2.77;;;;;;;;;;4912921;29;20233;-93
2024/03/28 09:56:54;;;;;;;2.27;2.17;;;;;;;;;;4903440;29;20206;-91
2024/03/28 09:59:21;;;;;;;3.13;2.17;;;;;;;;;;4908731;29;20234;-93
2024/03/28 10:01:47;;;;;;;2.30;2.00;;;;;;;;;;4877943;29;20237;-94
2024/03/28 10:04:13;;;;;;;2.50;2.13;;;;;;;;;;4878944;29;21174;-93
2024/03/28 10:07:16;;;;;;;3.17;2.27;;;;;;;;;;4869956;29;20245;-93
2024/03/28 10:09:41;;;;;;;2.20;1.60;;;;;;;;;;4862178;29;20802;-94
2024/03/28 10:12:10;;;;;;;1.90;1.70;;;;;;;;;;4883365;29;20251;-94
2024/03/28 10:14:38;;;;;;;2.23;2.03;;;;;;;;;;4861758;29;20226;-95
2024/03/28 10:17:05;;;;;;;2.17;1.97;;;;;;;;;;4876324;29;20262;-94
2024/03/28 10:19:33;;;;;;;1.80;1.57;;;;;;;;;;4846736;29;20238;-90
2024/03/28 10:22:06;;;;;;;5.10;2.23;;;;;;;;;;4868130;29;20237;-93
2024/03/28 10:24:33;;;;;;;3.13;2.13;;;;;;;;;;4866003;29;20218;-92
2024/03/28 10:27:00;;;;;;;1.63;1.23;;;;;;;;;;4849526;29;20215;-94
2024/03/28 10:29:31;;;;;;;3.07;2.63;;;;;;;;;;4850322;29;20706;-95
2024/03/28 10:32:09;;;;;;;1.63;1.40;;;;;;;;;;4865924;29;20230;-93
2024/03/28 10:34:37;;;;;;;1.47;1.37;;;;;;;;;;4890038;29;20238;-94
2024/03/28 10:37:04;;;;;;;1.60;1.50;;;;;;;;;;4885669;29;20440;-94
2024/03/28 10:39:31;;;;;;;1.33;1.20;;;;;;;;;;4844172;29;20312;-95
2024/03/28 10:41:58;;;;;;;1.40;1.23;;;;;;;;;;4853979;29;20222;-93
2024/03/28 10:44:25;;;;;;;1.17;1.07;;;;;;;;;;4852835;29;20235;-92
2024/03/28 10:46:51;;;;;;;1.60;1.53;;;;;;;;;;4854802;29;20239;-93
2024/03/28 10:49:19;;;;;;;1.20;1.13;;;;;;;;;;4860517;29;20246;-91
2024/03/28 10:51:51;;;;;;;1.10;1.07;;;;;;;;;;4857129;29;20317;-92
2024/03/28 10:54:35;;;;;;;2.20;1.73;;;;;;;;;;4858331;29;20347;-90
2024/03/28 10:57:13;;;;;;;1.73;1.53;;;;;;;;;;4863768;29;20278;-95
2024/03/28 11:04:49;;;;;;;1.30;0.90;;;;;;;;;;4905117;28;20674;-92
2024/03/28 11:07:15;;;;;;;0.70;0.70;;;;;;;;;;4885547;29;20320;-92
2024/03/28 11:09:42;;;;;;;0.97;0.97;;;;;;;;;;4888373;29;20226;-93
2024/03/28 11:12:11;;;;;;;0.83;0.83;;;;;;;;;;4876089;29;20211;-94
2024/03/28 11:14:37;;;;;;;0.47;0.47;;;;;;;;;;4890241;29;20278;-93
2024/03/28 11:17:04;;;;;;;0.90;0.90;;;;;;;;;;4873550;29;20297;-92
2024/03/28 11:19:30;;;;;;;0.90;0.90;;;;;;;;;;4887073;29;20231;-92
2024/03/28 11:21:59;;;;;;;0.50;0.50;;;;;;;;;;4903336;29;20234;-92
2024/03/28 11:24:31;;;;;;;0.70;0.70;;;;;;;;;;4887958;29;20245;-93
2024/03/28 11:27:02;;;;;;;0.67;0.67;;;;;;;;;;4887710;29;20218;-94
2024/03/28 11:29:28;;;;;;;1.27;0.90;;;;;;;;;;4887106;29;20262;-92
2024/03/28 11:31:57;;;;;;;0.70;0.70;;;;;;;;;;4887045;29;20242;-92
2024/03/28 11:34:31;;;;;;;1.27;1.17;;;;;;;;;;4887831;29;20260;-92
2024/03/28 11:36:58;;;;;;;1.97;1.47;;;;;;;;;;4890964;29;20238;-91
2024/03/28 11:39:27;;;;;;;0.83;0.83;;;;;;;;;;4889532;29;20222;-91
2024/03/28 11:41:53;;;;;;;1.23;1.10;;;;;;;;;;4890986;29;20654;-90
2024/03/28 11:44:20;;;;;;;0.50;0.50;;;;;;;;;;4890975;29;20238;-91
2024/03/28 11:46:47;;;;;;;0.77;0.77;;;;;;;;;;4877558;29;20246;-92
2024/03/28 11:49:19;;;;;;;0.73;0.57;;;;;;;;;;4878542;29;20241;-92
2024/03/28 11:51:46;;;;;;;1.63;1.50;;;;;;;;;;4907854;29;20239;-91
2024/03/28 11:54:17;;;;;;;1.70;1.33;;;;;;;;;;4862872;29;20230;-91
2024/03/28 11:56:43;;;;;;;0.70;0.70;;;;;;;;;;4892277;29;20241;-94
2024/03/28 11:59:19;;;;;;;1.37;1.27;;;;;;;;;;4875410;29;20238;-94
2024/03/28 12:01:48;;;;;;;1.30;1.13;;;;;;;;;;4857367;29;20241;-91
2024/03/28 12:04:26;;;;;;;2.13;1.00;;;;;;;;;;4876541;29;20738;-90
2024/03/28 12:06:53;;;;;;;1.00;1.00;;;;;;;;;;4873607;29;20242;-89
2024/03/28 12:09:19;;;;;;;1.27;1.17;;;;;;;;;;4875625;29;20249;-88
2024/03/28 12:11:45;;;;;;;1.23;1.23;;;;;;;;;;4868306;29;20250;-88
2024/03/28 12:14:12;;;;;;;1.23;0.70;;;;;;;;;;4860121;29;20357;-89
2024/03/28 12:16:44;;;;;;;1.20;1.13;;;;;;;;;;4876363;29;20670;-89
2024/03/28 12:19:13;;;;;;;1.27;0.80;;;;;;;;;;4877084;29;20242;-89
2024/03/28 12:21:40;;;;;;;0.90;0.80;;;;;;;;;;4877255;29;20242;-88
2024/03/28 12:24:07;;;;;;;0.90;0.90;;;;;;;;;;4893593;29;20711;-88
2024/03/28 12:26:34;;;;;;;0.70;0.50;;;;;;;;;;4892626;29;20325;-89
2024/03/28 12:29:00;;;;;;;1.23;1.07;;;;;;;;;;4878729;29;20234;-89
2024/03/28 12:31:26;;;;;;;0.60;0.60;;;;;;;;;;4873058;29;20264;-88
2024/03/28 12:33:52;;;;;;;0.87;0.77;;;;;;;;;;4843321;29;20224;-86
2024/03/28 12:36:18;;;;;;;2.23;1.07;;;;;;;;;;4840006;29;20230;-91
2024/03/28 12:38:45;;;;;;;0.67;0.67;;;;;;;;;;4838291;29;21099;-89
2024/03/28 12:41:18;;;;;;;0.70;0.70;;;;;;;;;;4839466;29;20351;-89
2024/03/28 12:43:53;;;;;;;0.73;0.73;;;;;;;;;;4838884;29;20759;-89
2024/03/28 12:46:19;;;;;;;1.23;1.17;;;;;;;;;;4853099;29;20228;-88
2024/03/28 12:48:46;;;;;;;1.00;0.77;;;;;;;;;;4853025;29;20272;-88
2024/03/28 12:51:12;;;;;;;0.47;0.47;;;;;;;;;;4838308;29;20235;-87
2024/03/28 12:53:38;;;;;;;0.70;0.70;;;;;;;;;;4850438;29;20424;-87
2024/03/28 12:56:04;;;;;;;1.37;1.27;;;;;;;;;;4829857;29;20239;-90
2024/03/28 12:58:30;;;;;;;0.33;0.33;;;;;;;;;;4843622;29;20267;-87
2024/03/28 13:00:56;;;;;;;0.83;0.83;;;;;;;;;;4840508;29;20232;-96
2024/03/28 13:03:23;;;;;;;0.80;0.80;;;;;;;;;;4884391;29;21036;-92
2024/03/28 13:05:53;;;;;;;1.17;0.97;;;;;;;;;;4893087;29;20229;-95
2024/03/28 13:08:22;;;;;;;2.93;1.00;;;;;;;;;;4905364;29;20290;-94
2024/03/28 13:10:51;;;;;;;0.87;0.80;;;;;;;;;;4898648;29;20222;-96
2024/03/28 13:13:20;;;;;;;1.03;1.03;;;;;;;;;;4887994;29;20301;-94
2024/03/28 13:15:47;;;;;;;1.30;1.00;;;;;;;;;;4851600;29;20241;-94
2024/03/28 13:18:25;;;;;;;0.93;0.93;;;;;;;;;;4871486;29;20223;-96
2024/03/28 13:20:55;;;;;;;0.97;0.80;;;;;;;;;;4866720;29;20227;-95
2024/03/28 13:23:21;;;;;;;0.77;0.73;;;;;;;;;;4879456;29;20294;-95
2024/03/28 13:25:48;;;;;;;2.27;0.87;;;;;;;;;;4860145;29;20868;-95
2024/03/28 13:28:16;;;;;;;1.60;1.50;;;;;;;;;;4903738;29;20436;-95
2024/03/28 13:30:51;;;;;;;1.13;1.03;;;;;;;;;;4875810;29;20269;-96
2024/03/28 13:33:20;;;;;;;0.23;0.23;;;;;;;;;;4859544;29;20329;-95
2024/03/28 13:35:50;;;;;;;0.30;0.30;;;;;;;;;;4843904;29;20239;-93
2024/03/28 13:38:16;;;;;;;12.17;1.17;;;;;;;;;;4889443;29;20234;-95
2024/03/28 13:40:42;;;;;;;0.13;0.13;;;;;;;;;;4875575;29;20271;-95
2024/03/28 13:43:11;;;;;;;1.53;0.47;;;;;;;;;;4862025;29;20246;-96
2024/03/28 13:45:37;;;;;;;1.43;0.60;;;;;;;;;;4910274;29;20219;-93
2024/03/28 13:48:09;;;;;;;3.03;0.73;;;;;;;;;;4896561;29;20286;-96
2024/03/28 13:50:36;;;;;;;1.13;0.70;;;;;;;;;;4892283;29;20242;-96
2024/03/28 13:53:04;;;;;;;0.63;0.60;;;;;;;;;;4893583;29;20329;-95
2024/03/28 13:55:33;;;;;;;0.63;0.63;;;;;;;;;;4883352;29;20234;-94
2024/03/28 13:57:59;;;;;;;0.83;0.83;;;;;;;;;;4892344;29;20238;-95
2024/03/28 14:00:25;;;;;;;0.30;0.30;;;;;;;;;;4892255;29;20242;-93
2024/03/28 14:02:52;;;;;;;2.27;0.70;;;;;;;;;;4908401;29;20235;-95
2024/03/28 14:05:20;;;;;;;1.43;1.20;;;;;;;;;;4885390;29;20237;-94
2024/03/28 14:07:47;;;;;;;0.30;0.30;;;;;;;;;;4890454;29;20246;-94
2024/03/28 14:10:13;;;;;;;9.03;0.70;;;;;;;;;;4906490;29;20242;-93
2024/03/28 14:12:41;;;;;;;0.37;0.37;;;;;;;;;;4891033;29;20246;-94
2024/03/28 14:15:16;;;;;;;1.70;0.83;;;;;;;;;;5057855;23;20239;-96
2024/03/28 14:17:43;;;;;;;1.00;0.90;;;;;;;;;;4905594;29;20305;-93
2024/03/28 14:20:10;;;;;;;1.67;1.50;;;;;;;;;;4888541;29;20241;-95
2024/03/28 14:22:39;;;;;;;3.17;0.27;;;;;;;;;;4881470;29;20274;-95
2024/03/28 14:25:06;;;;;;;8.90;1.20;;;;;;;;;;4882909;29;20234;-96
2024/03/28 14:27:34;;;;;;;0.60;0.57;;;;;;;;;;4883137;29;20223;-88
2024/03/28 14:30:00;;;;;;;1.33;1.27;;;;;;;;;;4903733;29;20222;-90
2024/03/28 14:32:29;;;;;;;0.20;0.20;;;;;;;;;;4856822;29;20227;-91
2024/03/28 14:34:56;;;;;;;5.80;1.07;;;;;;;;;;4851347;29;20290;-90
2024/03/28 14:37:22;;;;;;;0.47;0.47;;;;;;;;;;4857361;29;20290;-92
2024/03/28 14:39:48;;;;;;;0.40;0.40;;;;;;;;;;4869393;29;20250;-90
2024/03/28 14:42:16;;;;;;;0.53;0.53;;;;;;;;;;4863776;29;20579;-92
2024/03/28 14:44:44;;;;;;;22.57;1.93;;;;;;;;;;4833353;29;20773;-91
2024/03/28 14:47:11;;;;;;;0.47;0.47;;;;;;;;;;4835237;29;20768;-92
2024/03/28 14:49:37;;;;;;;1.53;1.43;;;;;;;;;;4846371;29;20239;-93
2024/03/28 14:52:04;;;;;;;0.53;0.53;;;;;;;;;;4848799;29;20244;-91
2024/03/28 14:54:30;;;;;;;0.30;0.30;;;;;;;;;;4833886;29;20219;-93
2024/03/28 14:56:57;;;;;;;1.80;0.83;;;;;;;;;;4859767;29;20238;-94
2024/03/28 14:59:27;;;;;;;5.10;1.03;;;;;;;;;;4859028;29;20235;-91